createdAt,value
2018-04-30T00:00:19.856Z,6.63
2018-04-30T00:02:47.379Z,6.53
2018-04-30T00:05:15.150Z,7.23
2018-04-30T00:07:42.664Z,6.50
2018-04-30T00:10:10.193Z,6.70
2018-04-30T00:12:37.832Z,6.77
2018-04-30T00:15:05.376Z,6.40
2018-04-30T00:17:32.916Z,6.93
2018-04-30T00:20:00.435Z,6.33
2018-04-30T00:22:27.962Z,6.80
2018-04-30T00:24:55.492Z,6.63
2018-04-30T00:27:23.022Z,7.20
2018-04-30T00:29:50.544Z,5.97
2018-04-30T00:32:18.077Z,6.80
2018-04-30T00:34:45.590Z,7.10
2018-04-30T00:37:13.225Z,6.63
2018-04-30T00:39:40.748Z,6.70
2018-04-30T00:42:08.347Z,7.73
2018-04-30T00:44:35.864Z,7.43
2018-04-30T00:47:03.393Z,6.60
2018-04-30T00:49:31.027Z,7.87
2018-04-30T00:51:58.551Z,7.27
2018-04-30T00:54:37.758Z,7.30
2018-04-30T00:57:05.295Z,7.07
2018-04-30T00:59:32.937Z,7.83
2018-04-30T01:02:00.465Z,7.97
2018-04-30T01:04:27.980Z,7.87
2018-04-30T01:06:55.614Z,8.33
2018-04-30T01:09:23.136Z,7.90
2018-04-30T01:11:50.668Z,8.10
2018-04-30T01:14:18.298Z,9.43
2018-04-30T01:16:45.827Z,8.80
2018-04-30T01:19:13.384Z,9.07
2018-04-30T01:21:40.900Z,9.10
2018-04-30T01:24:08.463Z,9.03
2018-04-30T01:26:36.010Z,8.80
2018-04-30T01:29:03.541Z,9.43
2018-04-30T01:31:31.068Z,9.83
2018-04-30T01:33:58.591Z,9.33
2018-04-30T01:36:26.104Z,10.10
2018-04-30T01:38:53.647Z,9.43
2018-04-30T01:41:21.239Z,8.53
2018-04-30T01:43:48.774Z,10.30
2018-04-30T01:46:16.302Z,10.57
2018-04-30T01:48:43.826Z,9.10
2018-04-30T01:51:11.490Z,10.97
2018-04-30T01:53:39.013Z,10.20
2018-04-30T01:56:06.547Z,10.23
2018-04-30T01:58:34.081Z,10.47
2018-04-30T02:01:01.604Z,11.17
2018-04-30T02:03:29.195Z,10.73
2018-04-30T02:05:56.755Z,11.33
2018-04-30T02:08:24.281Z,11.50
2018-04-30T02:10:51.802Z,10.70
2018-04-30T02:13:19.326Z,11.50
2018-04-30T02:15:46.857Z,11.47
2018-04-30T02:18:14.384Z,11.80
2018-04-30T02:20:41.907Z,12.23
2018-04-30T02:23:09.434Z,12.93
2018-04-30T02:25:37.026Z,12.40
2018-04-30T02:28:04.540Z,12.50
2018-04-30T02:30:32.148Z,12.10
2018-04-30T02:32:59.675Z,12.03
2018-04-30T02:35:27.193Z,12.70
2018-04-30T02:37:54.727Z,12.00
2018-04-30T02:40:22.248Z,13.43
2018-04-30T02:42:49.788Z,13.10
2018-04-30T02:45:17.324Z,13.43
2018-04-30T02:47:44.959Z,12.63
2018-04-30T02:50:12.485Z,12.40
2018-04-30T02:52:40.009Z,13.23
2018-04-30T02:55:07.527Z,13.03
2018-04-30T02:57:35.036Z,13.80
2018-04-30T03:00:02.562Z,13.57
2018-04-30T03:02:30.090Z,13.30
2018-04-30T03:04:57.664Z,13.43
2018-04-30T03:07:25.188Z,13.20
2018-04-30T03:09:52.804Z,13.03
2018-04-30T03:12:20.260Z,12.97
2018-04-30T03:14:47.840Z,13.33
2018-04-30T03:17:15.381Z,12.90
2018-04-30T03:19:42.903Z,12.97
2018-04-30T03:22:10.437Z,13.37
2018-04-30T03:24:37.963Z,12.40
2018-04-30T03:27:05.492Z,13.10
2018-04-30T03:29:33.075Z,13.93
2018-04-30T03:32:00.635Z,13.13
2018-04-30T03:34:28.176Z,13.70
2018-04-30T03:36:55.708Z,12.77
2018-04-30T03:39:23.239Z,12.60
2018-04-30T03:41:50.773Z,12.83
2018-04-30T03:44:18.295Z,12.50
2018-04-30T03:46:45.894Z,12.60
2018-04-30T03:49:13.427Z,12.27
2018-04-30T03:51:40.958Z,12.77
2018-04-30T03:54:08.492Z,12.27
2018-04-30T03:56:36.024Z,11.70
2018-04-30T03:59:03.555Z,12.03
2018-04-30T04:01:42.929Z,11.77
2018-04-30T04:07:14.965Z,11.93
2018-04-30T04:09:42.570Z,11.77
2018-04-30T04:12:10.097Z,11.77
2018-04-30T04:14:37.711Z,12.13
2018-04-30T04:17:05.184Z,11.57
2018-04-30T04:19:32.711Z,10.97
2018-04-30T04:22:00.241Z,10.83
2018-04-30T04:24:27.766Z,10.77
2018-04-30T04:26:55.290Z,10.80
2018-04-30T04:29:22.811Z,10.60
2018-04-30T04:31:50.335Z,10.73
2018-04-30T04:34:17.964Z,11.00
2018-04-30T04:36:45.495Z,10.73
2018-04-30T04:39:13.021Z,10.10
2018-04-30T04:41:40.720Z,9.83
2018-04-30T04:44:08.196Z,10.63
2018-04-30T04:46:35.719Z,10.83
2018-04-30T04:49:03.332Z,10.63
2018-04-30T04:51:30.842Z,10.83
2018-04-30T04:53:58.372Z,10.40
2018-04-30T04:56:25.949Z,9.50
2018-04-30T04:58:53.469Z,10.67
2018-04-30T05:01:20.991Z,10.03
2018-04-30T05:03:48.586Z,10.00
2018-04-30T05:06:16.112Z,10.17
2018-04-30T05:08:43.633Z,10.00
2018-04-30T05:11:11.170Z,10.10
2018-04-30T05:13:38.688Z,9.60
2018-04-30T05:16:06.303Z,10.00
2018-04-30T05:18:33.817Z,9.70
2018-04-30T05:21:01.360Z,10.23
2018-04-30T05:23:28.900Z,9.30
2018-04-30T05:25:56.455Z,10.30
2018-04-30T05:28:24.080Z,9.27
2018-04-30T05:30:51.640Z,9.40
2018-04-30T05:33:19.199Z,10.47
2018-04-30T05:35:46.733Z,9.77
2018-04-30T05:38:14.324Z,9.70
2018-04-30T05:40:41.884Z,8.97
2018-04-30T05:43:09.444Z,9.60
2018-04-30T05:45:36.973Z,9.47
2018-04-30T05:48:04.556Z,9.73
2018-04-30T05:50:32.049Z,9.87
2018-04-30T05:52:59.571Z,9.17
2018-04-30T05:55:27.143Z,9.60
2018-04-30T05:57:54.667Z,9.13
2018-04-30T06:00:22.201Z,9.57
2018-04-30T06:02:49.720Z,9.83
2018-04-30T06:05:17.235Z,9.70
2018-04-30T06:07:44.835Z,9.47
2018-04-30T06:10:12.367Z,9.10
2018-04-30T06:12:39.960Z,9.37
2018-04-30T06:15:07.571Z,9.00
2018-04-30T06:17:35.111Z,9.03
2018-04-30T06:20:02.582Z,9.80
2018-04-30T06:22:30.140Z,9.13
2018-04-30T06:24:57.660Z,9.03
2018-04-30T06:27:25.203Z,9.53
2018-04-30T06:29:52.716Z,9.23
2018-04-30T06:32:20.277Z,9.20
2018-04-30T06:34:47.796Z,9.00
2018-04-30T06:37:15.324Z,9.17
2018-04-30T06:39:42.849Z,9.20
2018-04-30T06:42:10.373Z,8.87
2018-04-30T06:44:37.889Z,8.70
2018-04-30T06:47:05.416Z,8.83
2018-04-30T06:49:32.952Z,8.50
2018-04-30T06:52:00.499Z,8.80
2018-04-30T06:54:28.016Z,8.77
2018-04-30T06:56:55.625Z,8.70
2018-04-30T06:59:23.153Z,8.90
2018-04-30T07:01:50.671Z,8.63
2018-04-30T07:04:18.311Z,9.17
2018-04-30T07:06:45.842Z,9.07
2018-04-30T07:09:13.406Z,8.10
2018-04-30T07:11:40.922Z,8.80
2018-04-30T07:14:08.446Z,8.63
2018-04-30T07:16:35.977Z,9.20
2018-04-30T07:19:03.496Z,8.73
2018-04-30T07:21:31.013Z,8.97
2018-04-30T07:23:58.541Z,8.97
2018-04-30T07:26:26.056Z,8.30
2018-04-30T07:28:53.586Z,8.87
2018-04-30T07:31:21.121Z,9.80
2018-04-30T07:33:48.663Z,9.70
2018-04-30T07:36:16.207Z,9.70
2018-04-30T07:38:43.728Z,9.17
2018-04-30T07:41:11.297Z,9.87
2018-04-30T07:43:38.861Z,9.33
2018-04-30T07:46:06.390Z,9.57
2018-04-30T07:48:33.912Z,9.63
2018-04-30T07:51:01.427Z,9.87
2018-04-30T07:53:28.999Z,9.13
2018-04-30T07:55:56.588Z,9.60
2018-04-30T07:58:24.121Z,9.87
2018-04-30T08:00:51.679Z,9.50
2018-04-30T08:03:19.204Z,9.93
2018-04-30T08:05:46.725Z,9.90
2018-04-30T08:08:14.359Z,9.00
2018-04-30T08:10:41.905Z,8.88
2018-04-30T08:13:09.416Z,8.77
2018-04-30T08:15:36.955Z,8.73
2018-04-30T08:18:04.496Z,8.40
2018-04-30T08:20:32.019Z,8.65
2018-04-30T08:22:59.552Z,8.02
2018-04-30T08:25:27.077Z,7.72
2018-04-30T08:27:54.616Z,7.68
2018-04-30T08:30:22.135Z,7.37
2018-04-30T08:32:49.724Z,11.77
2018-04-30T08:35:17.300Z,7.80
2018-04-30T08:37:44.824Z,6.72
2018-04-30T08:40:12.355Z,6.87
2018-04-30T08:42:39.988Z,6.40
2018-04-30T08:45:07.557Z,6.62
2018-04-30T08:47:35.073Z,7.03
2018-04-30T08:50:02.596Z,6.97
2018-04-30T08:52:30.118Z,6.50
2018-04-30T08:54:57.647Z,6.57
2018-04-30T08:57:25.172Z,6.32
2018-04-30T08:59:52.697Z,6.37
2018-04-30T09:02:20.221Z,7.35
2018-04-30T09:04:47.747Z,6.40
2018-04-30T09:07:15.267Z,6.03
2018-04-30T09:09:42.926Z,6.05
2018-04-30T09:12:10.397Z,5.85
2018-04-30T09:14:37.919Z,6.12
2018-04-30T09:17:05.445Z,6.20
2018-04-30T09:19:32.963Z,5.97
2018-04-30T09:22:00.477Z,5.18
2018-04-30T09:24:27.987Z,5.50
2018-04-30T09:26:55.504Z,6.30
2018-04-30T09:29:23.020Z,5.55
2018-04-30T09:31:50.544Z,5.18
2018-04-30T09:34:18.067Z,5.28
2018-04-30T09:36:45.627Z,5.32
2018-04-30T09:39:13.159Z,5.20
2018-04-30T09:41:40.731Z,5.40
2018-04-30T09:44:08.242Z,5.57
2018-04-30T09:46:35.764Z,5.15
2018-04-30T09:49:03.334Z,5.55
2018-04-30T09:51:30.848Z,5.60
2018-04-30T09:53:58.381Z,5.87
2018-04-30T09:56:25.902Z,5.35
2018-04-30T09:58:53.428Z,5.62
2018-04-30T10:01:20.938Z,5.30
2018-04-30T10:03:48.476Z,5.80
2018-04-30T10:06:15.996Z,5.80
2018-04-30T10:08:43.528Z,6.25
2018-04-30T10:11:11.054Z,6.05
2018-04-30T10:13:38.582Z,6.60
2018-04-30T10:16:06.115Z,6.25
2018-04-30T10:18:33.633Z,6.18
2018-04-30T10:21:01.147Z,5.40
2018-04-30T10:23:28.719Z,6.25
2018-04-30T10:25:56.235Z,5.28
2018-04-30T10:28:23.767Z,5.82
2018-04-30T10:30:51.403Z,4.87
2018-04-30T10:33:18.923Z,4.37
2018-04-30T10:35:46.520Z,3.80
2018-04-30T10:38:14.032Z,3.17
2018-04-30T10:40:41.569Z,3.10
2018-04-30T10:43:09.084Z,3.20
2018-04-30T10:45:36.594Z,3.00
2018-04-30T10:48:04.631Z,2.67
2018-04-30T10:50:32.147Z,2.87
2018-04-30T10:52:59.684Z,2.93
2018-04-30T10:55:27.211Z,2.63
2018-04-30T10:57:54.735Z,3.20
2018-04-30T11:00:22.330Z,2.83
2018-04-30T11:02:49.856Z,2.53
2018-04-30T11:05:17.379Z,2.93
2018-04-30T11:07:44.891Z,2.70
2018-04-30T11:10:12.409Z,2.50
2018-04-30T11:12:39.937Z,2.30
2018-04-30T11:15:07.448Z,2.50
2018-04-30T11:17:34.968Z,2.50
2018-04-30T11:20:02.484Z,2.20
2018-04-30T11:22:29.987Z,2.50
2018-04-30T11:24:57.520Z,2.53
2018-04-30T11:27:25.049Z,2.20
2018-04-30T11:29:52.565Z,2.20
2018-04-30T11:32:20.099Z,2.50
2018-04-30T11:34:47.625Z,5.97
2018-04-30T11:37:15.219Z,2.10
2018-04-30T11:39:42.748Z,2.20
2018-04-30T11:42:10.291Z,1.87
2018-04-30T11:44:37.898Z,1.80
2018-04-30T11:47:05.496Z,2.20
2018-04-30T11:49:32.959Z,1.90
2018-04-30T11:52:00.580Z,1.50
2018-04-30T13:10:25.183Z,0.80
2018-04-30T13:12:52.724Z,0.80
2018-04-30T13:15:20.286Z,0.83
2018-04-30T13:17:47.904Z,2.17
2018-04-30T13:20:15.435Z,1.47
2018-04-30T13:22:42.951Z,1.30
2018-04-30T13:25:10.475Z,0.73
2018-04-30T13:27:37.997Z,0.90
2018-04-30T13:30:05.519Z,0.90
2018-04-30T13:32:33.130Z,0.77
2018-04-30T13:35:00.648Z,1.37
2018-04-30T13:37:28.245Z,1.17
2018-04-30T13:39:55.762Z,1.30
2018-04-30T13:42:23.295Z,0.80
2018-04-30T13:44:50.808Z,0.90
2018-04-30T13:47:18.420Z,0.73
2018-04-30T13:49:46.051Z,0.97
2018-04-30T13:52:13.592Z,0.70
2018-04-30T13:54:41.257Z,5.67
2018-04-30T13:57:09.757Z,1.57
2018-04-30T13:59:37.417Z,1.10
2018-04-30T14:02:04.947Z,0.90
2018-04-30T14:04:32.533Z,0.80
2018-04-30T14:07:00.093Z,0.83
2018-04-30T14:09:27.619Z,0.77
2018-04-30T14:11:55.145Z,0.70
2018-04-30T14:14:22.778Z,0.80
2018-04-30T14:16:50.293Z,0.80
2018-04-30T14:19:17.823Z,0.97
2018-04-30T14:21:45.338Z,0.60
2018-04-30T14:24:12.884Z,0.77
2018-04-30T14:26:40.411Z,0.67
2018-04-30T14:29:07.934Z,0.73
2018-04-30T14:31:35.557Z,0.60
2018-04-30T14:34:03.155Z,0.70
2018-04-30T14:36:30.679Z,1.07
2018-04-30T14:38:58.230Z,0.87
2018-04-30T14:41:25.755Z,0.67
2018-04-30T14:43:53.258Z,0.77
2018-04-30T14:46:20.853Z,0.60
2018-04-30T14:48:49.467Z,0.60
2018-04-30T14:51:17.159Z,0.67
2018-04-30T14:53:44.658Z,0.70
2018-04-30T14:56:12.171Z,0.60
2018-04-30T14:58:39.705Z,0.87
2018-04-30T15:01:07.338Z,0.60
2018-04-30T15:03:34.895Z,0.70
2018-04-30T15:06:02.408Z,0.50
2018-04-30T15:08:29.948Z,0.53
2018-04-30T15:10:57.479Z,0.67
2018-04-30T15:13:25.064Z,0.67
2018-04-30T15:15:52.579Z,0.70
2018-04-30T15:18:20.170Z,0.60
2018-04-30T15:20:47.672Z,0.80
2018-04-30T15:23:15.232Z,0.77
2018-04-30T15:25:42.769Z,0.60
2018-04-30T15:28:10.513Z,0.80
2018-04-30T15:30:37.954Z,0.63
2018-04-30T15:33:05.468Z,0.70
2018-04-30T15:35:32.996Z,0.70
2018-04-30T15:38:00.533Z,0.63
2018-04-30T15:40:28.096Z,0.70
2018-04-30T15:42:55.611Z,0.90
2018-04-30T15:45:23.138Z,1.07
2018-04-30T15:47:50.660Z,0.90
2018-04-30T15:50:18.180Z,0.70
2018-04-30T15:52:45.696Z,1.40
2018-04-30T15:55:13.204Z,0.77
2018-04-30T15:57:40.724Z,1.40
2018-04-30T16:00:08.268Z,0.80
2018-04-30T16:02:35.798Z,0.97
2018-04-30T16:05:03.321Z,1.30
2018-04-30T16:07:30.831Z,1.20
2018-04-30T16:09:58.346Z,0.80
2018-04-30T16:12:25.963Z,0.93
2018-04-30T16:14:53.479Z,1.30
2018-04-30T16:17:21.045Z,1.87
2018-04-30T16:19:48.651Z,1.90
2018-04-30T16:22:16.188Z,1.30
2018-04-30T16:24:43.773Z,1.13
2018-04-30T16:27:11.287Z,0.90
2018-04-30T16:29:38.894Z,1.10
2018-04-30T16:32:06.405Z,0.80
2018-04-30T16:34:34.008Z,1.00
2018-04-30T16:37:01.569Z,0.70
2018-04-30T16:39:29.142Z,0.90
2018-04-30T16:41:56.652Z,0.90
2018-04-30T16:44:24.170Z,0.80
2018-04-30T16:46:51.678Z,1.20
2018-04-30T16:49:19.278Z,0.80
2018-04-30T16:51:46.792Z,0.80
2018-04-30T16:54:14.351Z,0.70
2018-04-30T16:56:41.867Z,0.80
2018-04-30T16:59:09.372Z,0.70
2018-04-30T17:01:36.899Z,0.70
2018-04-30T17:04:04.524Z,1.00
2018-04-30T17:06:32.057Z,0.60
2018-04-30T17:08:59.579Z,1.07
2018-04-30T17:11:27.091Z,0.80
2018-04-30T17:13:54.605Z,0.60
2018-04-30T17:16:22.120Z,0.80
2018-04-30T17:18:49.650Z,0.80
2018-04-30T17:21:17.178Z,0.80
2018-04-30T17:23:44.731Z,0.80
2018-04-30T17:26:12.267Z,0.70
2018-04-30T17:28:39.849Z,0.70
2018-04-30T17:31:07.394Z,0.80
2018-04-30T17:33:34.903Z,0.60
2018-04-30T17:36:02.429Z,0.80
2018-04-30T17:38:29.963Z,0.70
2018-04-30T17:40:57.563Z,0.70
2018-04-30T17:43:25.039Z,0.83
2018-04-30T17:45:52.564Z,0.70
2018-04-30T17:48:20.089Z,0.70
2018-04-30T17:50:47.657Z,0.90
2018-04-30T17:53:15.169Z,0.90
2018-04-30T17:55:42.694Z,0.80
2018-04-30T17:58:10.211Z,0.83
2018-04-30T18:00:37.741Z,0.70
2018-04-30T18:03:05.275Z,0.77
2018-04-30T18:05:32.794Z,0.90
2018-04-30T18:08:00.307Z,0.70
2018-04-30T18:10:27.831Z,1.03
2018-04-30T18:12:55.354Z,0.77
2018-04-30T18:15:22.869Z,0.70
2018-04-30T18:17:50.388Z,0.80
2018-04-30T18:20:17.980Z,0.70
2018-04-30T18:22:45.495Z,0.80
2018-04-30T18:25:13.011Z,0.90
2018-04-30T18:27:40.526Z,0.73
2018-04-30T18:30:08.053Z,0.93
2018-04-30T18:32:35.640Z,0.80
2018-04-30T18:35:03.224Z,0.90
2018-04-30T18:37:30.807Z,0.90
2018-04-30T18:39:58.327Z,1.20
2018-04-30T18:42:25.855Z,1.17
2018-04-30T18:44:53.393Z,1.43
2018-04-30T18:47:20.922Z,1.60
2018-04-30T18:49:48.443Z,1.43
2018-04-30T18:52:15.969Z,1.50
2018-04-30T18:54:43.501Z,1.50
2018-04-30T18:57:11.019Z,2.03
2018-04-30T18:59:38.539Z,1.97
2018-04-30T19:02:06.073Z,2.00
2018-04-30T19:04:33.616Z,2.07
2018-04-30T19:07:01.157Z,2.03
2018-04-30T19:09:28.677Z,2.00
2018-04-30T19:11:56.206Z,1.80
2018-04-30T19:14:23.749Z,1.77
2018-04-30T19:16:51.266Z,2.30
2018-04-30T19:19:18.811Z,3.27
2018-04-30T19:21:46.371Z,2.20
2018-04-30T19:24:13.925Z,2.47
2018-04-30T19:26:41.469Z,2.20
2018-04-30T19:29:09.013Z,2.30
2018-04-30T19:31:36.533Z,2.40
2018-04-30T19:34:04.073Z,3.00
2018-04-30T19:36:31.635Z,3.43
2018-04-30T19:38:59.299Z,2.70
2018-04-30T19:41:26.834Z,2.50
2018-04-30T19:43:54.352Z,2.27
2018-04-30T19:46:21.882Z,1.87
2018-04-30T19:48:49.392Z,2.20
2018-04-30T19:51:16.906Z,2.27
2018-04-30T19:53:44.583Z,2.47
2018-04-30T19:56:12.114Z,2.50
2018-04-30T19:58:39.664Z,3.20
2018-04-30T20:01:07.206Z,3.43
2018-04-30T20:03:34.856Z,3.70
2018-04-30T20:06:02.400Z,4.13
2018-04-30T20:08:29.925Z,3.20
2018-04-30T20:10:57.451Z,3.67
2018-04-30T20:13:24.976Z,3.90
2018-04-30T20:15:52.525Z,4.30
2018-04-30T20:18:20.072Z,4.37
2018-04-30T20:20:47.600Z,3.90
2018-04-30T21:45:12.104Z,4.43
2018-04-30T21:47:39.624Z,4.20
2018-04-30T21:50:07.156Z,4.10
2018-04-30T21:52:34.690Z,4.73
2018-04-30T21:55:02.204Z,4.57
2018-04-30T21:57:29.731Z,4.23
2018-04-30T21:59:57.261Z,4.30
2018-04-30T22:02:24.780Z,4.23
2018-04-30T22:04:52.311Z,4.30
2018-04-30T22:07:19.851Z,4.63
2018-04-30T22:09:47.388Z,4.60
2018-04-30T22:12:14.900Z,3.73
2018-04-30T22:14:42.415Z,4.30
2018-04-30T22:17:09.931Z,4.50
2018-04-30T22:19:37.450Z,4.23
2018-04-30T22:22:04.958Z,4.53
2018-04-30T22:24:32.589Z,4.27
2018-04-30T22:27:00.114Z,4.47
2018-04-30T22:29:27.687Z,4.50
2018-04-30T22:31:55.200Z,4.60
2018-04-30T22:34:22.721Z,4.33
2018-04-30T22:36:50.260Z,4.80
2018-04-30T22:39:17.771Z,4.90
2018-04-30T22:41:45.298Z,4.30
2018-04-30T22:44:12.829Z,4.50
2018-04-30T22:46:40.343Z,4.57
2018-04-30T22:49:07.865Z,4.43
2018-04-30T22:51:35.376Z,4.30
2018-04-30T22:54:02.896Z,4.40
2018-04-30T22:56:30.426Z,4.70
2018-04-30T22:58:57.941Z,4.80
2018-04-30T23:01:25.474Z,5.10
2018-04-30T23:03:52.988Z,4.50
2018-04-30T23:06:20.507Z,4.77
2018-04-30T23:08:48.020Z,4.60
2018-04-30T23:11:15.537Z,5.30
2018-04-30T23:13:43.057Z,5.57
2018-04-30T23:16:10.569Z,5.27
2018-04-30T23:18:38.092Z,5.77
2018-04-30T23:21:05.612Z,5.60
2018-04-30T23:23:33.137Z,5.57
2018-04-30T23:26:00.652Z,5.27
2018-04-30T23:28:28.165Z,5.20
2018-04-30T23:30:55.684Z,5.00
2018-04-30T23:33:23.204Z,5.33
2018-04-30T23:35:50.728Z,5.50
2018-04-30T23:38:18.261Z,5.07
2018-04-30T23:40:45.791Z,5.00
2018-04-30T23:43:13.304Z,4.90
2018-04-30T23:45:40.833Z,4.53
2018-04-30T23:48:08.353Z,4.20
2018-04-30T23:50:35.880Z,5.00
2018-04-30T23:53:03.420Z,4.47
2018-04-30T23:55:30.944Z,4.03
2018-04-30T23:57:58.462Z,4.27
